createdAt,value
2022-12-27T00:03:03.443Z,9.22
2022-12-27T00:06:20.773Z,9.34
2022-12-27T00:09:24.099Z,9.10
2022-12-27T00:12:27.301Z,9.12
2022-12-27T00:15:30.781Z,8.95
2022-12-27T00:18:34.482Z,8.95
2022-12-27T00:21:37.720Z,8.69
2022-12-27T00:24:40.971Z,8.54
2022-12-27T00:27:44.216Z,8.54
2022-12-27T00:30:49.828Z,8.52
2022-12-27T00:33:54.906Z,8.50
2022-12-27T00:36:58.170Z,8.35
2022-12-27T00:40:01.480Z,8.30
2022-12-27T00:43:05.058Z,8.02
2022-12-27T00:46:08.956Z,8.08
2022-12-27T00:49:12.186Z,7.96
2022-12-27T00:52:15.603Z,8.04
2022-12-27T00:55:18.810Z,7.77
2022-12-27T00:58:22.285Z,7.70
2022-12-27T01:01:27.172Z,7.05
2022-12-27T01:04:30.544Z,7.02
2022-12-27T01:07:33.970Z,7.11
2022-12-27T01:10:38.409Z,7.29
2022-12-27T01:13:44.117Z,7.37
2022-12-27T01:16:49.631Z,7.22
2022-12-27T01:19:52.897Z,7.17
2022-12-27T01:22:56.233Z,7.12
2022-12-27T01:26:13.023Z,7.05
2022-12-27T01:29:16.297Z,6.63
2022-12-27T01:32:19.497Z,6.33
2022-12-27T01:35:22.735Z,6.57
2022-12-27T01:38:25.913Z,6.52
2022-12-27T01:41:33.430Z,6.53
2022-12-27T01:44:39.753Z,6.21
2022-12-27T01:47:45.673Z,6.33
2022-12-27T01:50:54.597Z,6.23
2022-12-27T01:53:57.955Z,6.30
2022-12-27T01:57:01.136Z,5.95
2022-12-27T02:00:05.108Z,5.65
2022-12-27T02:03:08.509Z,5.59
2022-12-27T02:06:13.317Z,5.58
2022-12-27T02:09:44.680Z,5.46
2022-12-27T02:12:48.233Z,5.34
2022-12-27T02:15:52.890Z,5.45
2022-12-27T02:18:56.249Z,5.65
2022-12-27T02:22:08.153Z,5.61
2022-12-27T02:25:45.152Z,5.28
2022-12-27T02:29:02.501Z,4.67
2022-12-27T02:32:17.630Z,4.81
2022-12-27T02:35:33.934Z,4.81
2022-12-27T02:38:50.676Z,4.79
2022-12-27T02:41:54.461Z,5.00
2022-12-27T02:44:57.822Z,4.70
2022-12-27T02:48:01.175Z,5.07
2022-12-27T02:51:24.795Z,5.10
2022-12-27T02:54:38.723Z,5.03
2022-12-27T02:57:56.545Z,4.60
2022-12-27T03:01:24.192Z,4.62
2022-12-27T03:04:52.511Z,4.95
2022-12-27T03:08:18.510Z,4.46
2022-12-27T03:11:21.993Z,4.18
2022-12-27T03:14:30.102Z,4.19
2022-12-27T03:17:42.304Z,4.36
2022-12-27T03:20:46.333Z,4.39
2022-12-27T03:23:50.291Z,4.30
2022-12-27T03:26:55.783Z,4.16
2022-12-27T03:30:00.429Z,4.20
2022-12-27T03:33:07.465Z,4.13
2022-12-27T03:36:16.969Z,4.19
2022-12-27T03:39:34.208Z,4.25
2022-12-27T03:42:43.220Z,4.02
2022-12-27T03:46:20.877Z,3.94
2022-12-27T03:49:44.975Z,3.70
2022-12-27T03:53:17.841Z,3.60
2022-12-27T03:56:21.305Z,3.78
2022-12-27T03:59:24.886Z,4.08
2022-12-27T04:02:28.249Z,3.73
2022-12-27T04:05:33.898Z,3.53
2022-12-27T04:08:37.123Z,3.35
2022-12-27T04:11:42.542Z,3.30
2022-12-27T04:14:45.727Z,3.28
2022-12-27T04:17:48.950Z,3.31
2022-12-27T04:20:52.187Z,3.31
2022-12-27T04:23:55.680Z,3.69
2022-12-27T04:26:58.928Z,3.65
2022-12-27T04:30:02.101Z,3.45
2022-12-27T04:33:05.407Z,3.21
2022-12-27T04:36:09.116Z,3.12
2022-12-27T04:39:14.020Z,3.12
2022-12-27T04:42:17.209Z,3.09
2022-12-27T04:45:20.911Z,3.14
2022-12-27T04:48:24.341Z,3.23
2022-12-27T04:51:27.551Z,3.02
2022-12-27T04:54:30.793Z,3.17
2022-12-27T04:57:34.044Z,3.11
2022-12-27T05:00:37.259Z,2.98
2022-12-27T05:03:40.781Z,2.94
2022-12-27T05:06:43.987Z,3.14
2022-12-27T05:09:50.234Z,3.04
2022-12-27T05:12:53.436Z,2.68
2022-12-27T05:15:56.735Z,2.77
2022-12-27T05:19:00.039Z,2.42
2022-12-27T05:22:03.486Z,2.68
2022-12-27T05:25:07.150Z,2.70
2022-12-27T05:28:11.779Z,2.62
2022-12-27T05:31:15.581Z,2.63
2022-12-27T05:34:21.158Z,2.90
2022-12-27T05:37:24.409Z,3.11
2022-12-27T05:40:28.236Z,3.11
2022-12-27T05:43:32.564Z,2.45
2022-12-27T05:46:38.238Z,2.40
2022-12-27T05:49:41.404Z,2.28
2022-12-27T05:52:46.499Z,2.22
2022-12-27T05:55:57.152Z,2.18
2022-12-27T05:59:00.364Z,2.17
2022-12-27T06:02:03.986Z,2.16
2022-12-27T06:05:07.572Z,2.15
2022-12-27T06:08:11.745Z,2.07
2022-12-27T06:11:18.930Z,1.94
2022-12-27T06:14:22.129Z,2.04
2022-12-27T06:17:27.613Z,2.17
2022-12-27T06:20:31.189Z,2.44
2022-12-27T06:23:35.957Z,2.63
2022-12-27T06:26:39.217Z,2.48
2022-12-27T06:29:42.447Z,2.33
2022-12-27T06:32:45.870Z,2.06
2022-12-27T06:35:49.133Z,1.78
2022-12-27T06:38:52.295Z,1.76
2022-12-27T06:41:55.500Z,2.09
2022-12-27T06:44:58.617Z,1.86
2022-12-27T06:48:01.830Z,1.84
2022-12-27T06:51:07.114Z,1.93
2022-12-27T06:54:10.399Z,1.68
2022-12-27T06:57:13.694Z,1.78
2022-12-27T07:00:17.346Z,1.84
2022-12-27T07:03:20.529Z,1.50
2022-12-27T07:06:25.180Z,1.55
2022-12-27T07:09:28.378Z,1.68
2022-12-27T07:12:36.499Z,1.76
2022-12-27T07:15:40.234Z,1.97
2022-12-27T07:18:44.128Z,1.38
2022-12-27T07:21:47.283Z,1.36
2022-12-27T07:24:50.433Z,1.66
2022-12-27T07:27:54.085Z,1.49
2022-12-27T07:30:57.303Z,1.29
2022-12-27T07:34:02.687Z,1.31
2022-12-27T07:37:10.833Z,1.49
2022-12-27T07:40:13.983Z,1.57
2022-12-27T07:43:17.879Z,1.74
2022-12-27T07:46:24.106Z,1.93
2022-12-27T07:49:27.315Z,1.97
2022-12-27T07:52:30.465Z,1.18
2022-12-27T07:55:33.628Z,1.11
2022-12-27T07:58:38.469Z,1.28
2022-12-27T08:01:42.380Z,1.01
2022-12-27T08:04:45.616Z,1.33
2022-12-27T08:07:48.824Z,1.33
2022-12-27T08:10:52.022Z,1.14
2022-12-27T08:13:55.338Z,1.11
2022-12-27T08:17:03.775Z,1.45
2022-12-27T08:20:07.427Z,1.23
2022-12-27T08:23:10.530Z,1.38
2022-12-27T08:26:16.223Z,1.30
2022-12-27T08:29:19.497Z,1.22
2022-12-27T08:32:22.756Z,1.03
2022-12-27T08:35:51.394Z,0.85
2022-12-27T08:38:49.081Z,0.76
2022-12-27T08:41:53.710Z,0.69
2022-12-27T08:44:56.962Z,0.68
2022-12-27T08:48:01.339Z,1.17
2022-12-27T08:51:11.944Z,1.01
2022-12-27T08:54:16.313Z,0.90
2022-12-27T08:57:20.706Z,0.54
2022-12-27T09:00:24.757Z,0.79
2022-12-27T09:03:27.989Z,1.02
2022-12-27T09:06:31.529Z,0.67
2022-12-27T09:09:34.771Z,0.71
2022-12-27T09:12:38.054Z,0.67
2022-12-27T09:15:41.291Z,0.53
2022-12-27T09:18:44.917Z,0.41
2022-12-27T09:21:48.101Z,0.27
2022-12-27T09:24:51.303Z,0.36
2022-12-27T09:27:54.597Z,0.32
2022-12-27T09:30:57.831Z,0.46
2022-12-27T09:34:01.132Z,0.63
2022-12-27T09:37:08.924Z,0.66
2022-12-27T09:40:16.597Z,0.58
2022-12-27T09:43:27.489Z,0.15
2022-12-27T09:46:40.290Z,0.30
2022-12-27T09:49:51.051Z,0.26
2022-12-27T09:53:08.094Z,0.20
2022-12-27T09:56:14.456Z,0.32
2022-12-27T09:59:28.444Z,0.48
2022-12-27T10:02:31.704Z,0.30
2022-12-27T10:05:37.508Z,0.43
2022-12-27T10:09:11.634Z,0.44
2022-12-27T10:12:56.057Z,0.18
2022-12-27T10:16:15.265Z,0.37
2022-12-27T10:19:35.718Z,0.22
2022-12-27T10:22:43.886Z,0.37
2022-12-27T10:25:48.047Z,0.11
2022-12-27T10:29:15.365Z,0.37
2022-12-27T10:32:18.716Z,0.90
2022-12-27T10:35:22.371Z,0.78
2022-12-27T10:38:29.431Z,0.49
2022-12-27T10:41:51.589Z,0.28
2022-12-27T10:45:32.919Z,0.06
2022-12-27T10:49:10.950Z,0.16
2022-12-27T10:52:10.171Z,0.05
2022-12-27T10:55:38.740Z,0.02
2022-12-27T10:58:44.720Z,0.40
2022-12-27T11:02:15.332Z,0.73
2022-12-27T11:05:23.396Z,0.86
2022-12-27T11:08:27.310Z,1.15
2022-12-27T11:11:30.471Z,0.79
2022-12-27T11:14:33.832Z,0.67
2022-12-27T11:17:41.723Z,0.42
2022-12-27T11:21:16.120Z,0.19
2022-12-27T11:24:27.059Z,-0.05
2022-12-27T11:27:31.347Z,0.12
2022-12-27T11:30:40.280Z,0.43
2022-12-27T11:33:48.521Z,0.60
2022-12-27T11:36:55.111Z,0.68
2022-12-27T11:40:35.708Z,0.73
2022-12-27T11:44:03.879Z,0.74
2022-12-27T11:47:14.354Z,0.05
2022-12-27T11:50:29.015Z,-0.17
2022-12-27T11:54:16.987Z,-0.34
2022-12-27T11:57:38.577Z,-0.31
2022-12-27T12:01:15.670Z,-0.38
2022-12-27T12:04:50.743Z,-0.29
2022-12-27T12:08:15.603Z,0.03
2022-12-27T12:11:31.673Z,-0.12
2022-12-27T12:15:07.585Z,0.04
2022-12-27T12:18:28.659Z,-0.49
2022-12-27T12:22:04.562Z,-0.68
2022-12-27T12:25:10.793Z,-0.76
2022-12-27T12:28:57.142Z,-0.53
2022-12-27T12:32:13.294Z,-0.49
2022-12-27T12:35:40.263Z,-0.57
2022-12-27T12:38:53.846Z,-0.79
2022-12-27T12:42:22.860Z,-0.75
2022-12-27T12:46:16.838Z,-0.63
2022-12-27T12:49:27.339Z,-0.50
2022-12-27T12:52:48.958Z,-0.42
2022-12-27T12:56:10.740Z,-0.34
2022-12-27T13:00:03.628Z,-0.79
2022-12-27T13:03:31.062Z,-0.88
2022-12-27T13:06:46.324Z,-0.76
2022-12-27T13:10:00.807Z,-0.77
2022-12-27T13:13:10.651Z,-0.72
2022-12-27T13:16:39.551Z,-0.81
2022-12-27T13:19:57.715Z,-0.88
2022-12-27T13:23:33.723Z,-0.70
2022-12-27T13:26:51.568Z,-0.48
2022-12-27T13:30:07.600Z,-0.58
2022-12-27T13:33:47.751Z,-0.65
2022-12-27T13:37:09.280Z,-0.42
2022-12-27T13:40:36.710Z,-0.28
2022-12-27T13:43:48.633Z,-0.03
2022-12-27T13:47:12.818Z,-0.08
2022-12-27T13:50:24.745Z,-0.14
2022-12-27T13:53:49.127Z,0.00
2022-12-27T13:57:00.211Z,-0.10
2022-12-27T14:00:14.847Z,0.17
2022-12-27T14:03:39.381Z,0.16
2022-12-27T14:06:56.544Z,0.50
2022-12-27T14:10:09.811Z,0.38
2022-12-27T14:13:14.345Z,0.34
2022-12-27T14:16:45.316Z,0.46
2022-12-27T14:20:01.254Z,0.51
2022-12-27T14:23:34.807Z,0.64
2022-12-27T14:27:24.768Z,0.69
2022-12-27T14:30:39.889Z,0.61
2022-12-27T14:33:57.922Z,0.91
2022-12-27T14:37:31.955Z,0.93
2022-12-27T14:40:35.169Z,1.03
2022-12-27T14:44:10.288Z,1.31
2022-12-27T14:47:31.688Z,1.60
2022-12-27T14:51:08.077Z,1.45
2022-12-27T14:54:40.741Z,1.79
2022-12-27T14:57:52.629Z,1.89
2022-12-27T15:01:24.388Z,1.80
2022-12-27T15:04:58.351Z,1.70
2022-12-27T15:08:34.672Z,1.81
2022-12-27T15:12:01.994Z,2.23
2022-12-27T15:15:20.133Z,2.07
2022-12-27T15:18:36.209Z,2.07
2022-12-27T15:22:16.402Z,2.16
2022-12-27T15:25:26.495Z,2.29
2022-12-27T15:28:33.700Z,2.71
2022-12-27T15:31:46.768Z,2.63
2022-12-27T15:35:16.688Z,2.69
2022-12-27T15:38:53.455Z,2.77
2022-12-27T15:42:33.027Z,3.02
2022-12-27T15:45:57.716Z,2.99
2022-12-27T15:49:32.952Z,3.10
2022-12-27T15:53:02.792Z,3.58
2022-12-27T15:56:31.033Z,3.46
2022-12-27T15:59:44.760Z,3.36
2022-12-27T16:02:48.166Z,3.43
2022-12-27T16:05:54.931Z,3.90
2022-12-27T16:09:25.692Z,3.75
2022-12-27T16:12:40.982Z,3.89
2022-12-27T16:15:44.323Z,4.08
2022-12-27T16:19:06.005Z,4.25
2022-12-27T16:22:39.369Z,4.20
2022-12-27T16:25:43.158Z,4.17
2022-12-27T16:29:03.883Z,4.19
2022-12-27T16:32:17.031Z,4.32
2022-12-27T16:35:20.345Z,4.73
2022-12-27T16:38:23.611Z,5.02
2022-12-27T16:41:36.745Z,5.51
2022-12-27T16:45:07.784Z,5.81
2022-12-27T16:48:23.252Z,5.74
2022-12-27T16:51:44.832Z,5.69
2022-12-27T16:55:12.813Z,5.82
2022-12-27T16:58:18.926Z,6.00
2022-12-27T17:01:36.086Z,5.78
2022-12-27T17:04:54.527Z,5.72
2022-12-27T17:07:57.691Z,6.24
2022-12-27T17:11:03.679Z,6.56
2022-12-27T17:14:28.907Z,6.74
2022-12-27T17:17:32.227Z,6.45
2022-12-27T17:20:37.417Z,6.53
2022-12-27T17:23:46.876Z,7.28
2022-12-27T17:27:13.699Z,7.57
2022-12-27T17:30:25.398Z,7.67
2022-12-27T17:33:38.905Z,7.38
2022-12-27T17:36:47.998Z,7.69
2022-12-27T17:40:19.884Z,7.61
2022-12-27T17:43:28.859Z,7.59
2022-12-27T17:46:56.036Z,7.58
2022-12-27T17:50:02.037Z,7.51
2022-12-27T17:53:18.152Z,7.81
2022-12-27T17:56:23.005Z,7.95
2022-12-27T17:59:28.031Z,8.56
2022-12-27T18:02:33.938Z,8.80
2022-12-27T18:05:43.399Z,8.73
2022-12-27T18:08:48.868Z,8.91
2022-12-27T18:11:52.153Z,8.94
2022-12-27T18:15:06.302Z,9.04
2022-12-27T18:18:10.347Z,8.88
2022-12-27T18:21:31.224Z,8.63
2022-12-27T18:24:34.684Z,8.59
2022-12-27T18:27:37.989Z,8.86
2022-12-27T18:31:03.220Z,8.72
2022-12-27T18:34:42.758Z,9.34
2022-12-27T18:37:48.423Z,9.40
2022-12-27T18:41:05.490Z,8.97
2022-12-27T18:44:15.192Z,9.19
2022-12-27T18:47:23.758Z,9.35
2022-12-27T18:50:30.213Z,9.65
2022-12-27T18:53:38.464Z,9.37
2022-12-27T18:56:42.692Z,9.80
2022-12-27T19:00:02.081Z,10.19
2022-12-27T19:03:16.771Z,10.38
2022-12-27T19:06:20.218Z,11.15
2022-12-27T19:09:29.934Z,10.58
2022-12-27T19:12:36.859Z,10.65
2022-12-27T19:15:43.304Z,10.83
2022-12-27T19:18:52.106Z,10.85
2022-12-27T19:21:55.586Z,10.95
2022-12-27T19:25:18.622Z,11.57
2022-12-27T19:28:29.685Z,11.30
2022-12-27T19:31:33.245Z,11.03
2022-12-27T19:34:48.697Z,11.33
2022-12-27T19:37:51.887Z,10.84
2022-12-27T19:41:03.032Z,10.83
2022-12-27T19:44:07.094Z,10.77
2022-12-27T19:47:14.360Z,10.88
2022-12-27T19:50:17.456Z,11.44
2022-12-27T19:53:31.444Z,11.46
2022-12-27T19:56:34.664Z,11.70
2022-12-27T19:59:37.892Z,11.53
2022-12-27T20:02:41.212Z,11.32
2022-12-27T20:06:11.357Z,10.98
2022-12-27T20:09:14.695Z,11.24
2022-12-27T20:12:18.138Z,11.25
2022-12-27T20:15:21.485Z,10.65
2022-12-27T20:18:25.515Z,10.75
2022-12-27T20:21:28.815Z,11.61
2022-12-27T20:24:32.080Z,10.92
2022-12-27T20:27:37.677Z,10.53
2022-12-27T20:30:42.838Z,10.90
2022-12-27T20:33:46.306Z,10.73
2022-12-27T20:36:49.573Z,10.79
2022-12-27T20:39:52.707Z,10.92
2022-12-27T20:42:57.022Z,11.19
2022-12-27T20:46:05.686Z,11.43
2022-12-27T20:49:08.956Z,11.39
2022-12-27T20:52:12.162Z,11.36
2022-12-27T20:55:17.674Z,11.07
2022-12-27T20:58:20.912Z,11.35
2022-12-27T21:01:28.132Z,11.14
2022-12-27T21:04:32.027Z,10.88
2022-12-27T21:07:35.539Z,11.22
2022-12-27T21:10:38.752Z,10.89
2022-12-27T21:13:43.224Z,11.05
2022-12-27T21:16:46.484Z,10.78
2022-12-27T21:19:49.701Z,11.40
2022-12-27T21:22:52.903Z,11.70
2022-12-27T21:25:56.168Z,11.30
2022-12-27T21:29:00.796Z,11.65
2022-12-27T21:32:04.080Z,12.16
2022-12-27T21:35:07.741Z,11.86
2022-12-27T21:38:10.935Z,12.25
2022-12-27T21:41:16.944Z,11.62
2022-12-27T21:44:20.261Z,10.93
2022-12-27T21:47:26.165Z,11.10
2022-12-27T21:50:35.415Z,11.50
2022-12-27T21:53:40.856Z,11.69
2022-12-27T21:56:44.024Z,11.51
2022-12-27T21:59:47.190Z,11.29
2022-12-27T22:02:50.668Z,11.35
2022-12-27T22:05:53.905Z,11.29
2022-12-27T22:09:02.437Z,11.11
2022-12-27T22:12:05.739Z,10.94
2022-12-27T22:15:09.469Z,10.85
2022-12-27T22:18:14.044Z,10.86
2022-12-27T22:21:20.438Z,10.81
2022-12-27T22:24:23.581Z,10.65
2022-12-27T22:27:27.189Z,10.90
2022-12-27T22:30:30.447Z,11.09
2022-12-27T22:33:33.863Z,11.04
2022-12-27T22:36:37.108Z,11.06
2022-12-27T22:39:40.406Z,10.94
2022-12-27T22:42:43.642Z,10.75
2022-12-27T22:45:53.480Z,10.67
2022-12-27T22:48:59.307Z,10.42
2022-12-27T22:52:02.704Z,10.21
2022-12-27T22:55:07.150Z,9.86
2022-12-27T22:58:10.627Z,9.76
2022-12-27T23:01:16.240Z,9.78
2022-12-27T23:04:19.647Z,9.67
2022-12-27T23:08:05.348Z,9.59
2022-12-27T23:10:46.088Z,9.37
2022-12-27T23:13:54.159Z,9.29
2022-12-27T23:16:57.334Z,9.25
2022-12-27T23:20:00.545Z,9.01
2022-12-27T23:23:03.759Z,8.41
2022-12-27T23:26:09.952Z,8.24
2022-12-27T23:29:14.230Z,8.40
2022-12-27T23:32:17.432Z,8.36
2022-12-27T23:35:20.687Z,7.77
2022-12-27T23:38:23.986Z,7.79
2022-12-27T23:41:27.666Z,7.84
2022-12-27T23:44:33.688Z,7.64
2022-12-27T23:47:39.439Z,7.71
2022-12-27T23:50:42.728Z,7.64
2022-12-27T23:53:47.298Z,7.52
2022-12-27T23:56:50.472Z,7.27
2022-12-27T23:59:57.111Z,7.15
